Campbell AAF (Fort Campbell) Air Field
KHOP : now visible

Airfield :











YOU CAN JOIN US ON...

 
LOGIN :

Register | Disclaimer

   EN    FR    IT 

 









Legend :    VFR   Marginal VFR   IFR   Intensive IFR   Very Intensive IFR
Visi :
Ceiling :
>= 8 km
>= 3000ft
5 to 8 km
1000 to 3000 ft
1500m to 5 km
500 to 1000 ft
800 to 1500m
200 to 500 ft
< 800m
< 200 ft
Symbols :   Thunderstorms  Fog  Heavy snow  Heavy precipitations  Wind > 20 kt






- Airport Elevation : 573 ft


KHOP - Campbell AAF (Fort Campbell) Air Field

CURRENT METAR :
  • 280656Z 01004KT 4SM BR OVC010 11/11 A3011 RMK SLPNO WND DATA ESTMD ALSTG/ ESTMD

EXPIRED METARs :
  • 280556Z 34005KT 6SM BR FEW009 OVC013 12/11 A3012 RMK SLPNO WND DATA ESTMD ALSTG/SLP ESTMD
  • 280456Z 35003KT 6SM BR BKN012 BKN029 11/11 A3012 RMK SLPNO AO2A CIG 012V029

TAF AMD TAF KHOP
Valid from the 28 at 05:00 until the 29 at 06:00 UTC


280500Z 2805/2906 VRB06KT 8000 BR OVC010 QNH3011INS
BECMG 2806/2807 36006KT 9999 NSW OVC010 510102 QNH3009INS
BECMG 2809/2810 06006KT 9000 -DZ OVC005 QNH3004INS
BECMG 2818/2819 07006KT 4800 -SHRA OVC005 QNH2973INS TX17/2819Z TN11/2811Z
KZME FIR / North America



MET'MAP, your aeronautical weather chart ! - Copyright ORBIFLY December 2007 - Disclaimer

ORBIFLY MET'MAP TEAM :

Programming & Development : Alexandra Zaïnal
Concept & original design : Baudouin d'Aumeries
Assistance for programming : Marc-Olivier Méhu
Technical & hardware support : Manuel Goepfert

Contact : metmap@orbifly.com




SOURCES & CREDITS :

   NOAA       Earth
Advisory